Accedi per prenotare

Caricamento...

Situazione Metar e Taf aeroporto Pisa - Effemeridi Aeroporto Lucca

[Source: ADDS]
METAR
LIRP 251415Z 10003KT 9999 -RA SCT025 BKN040 13/11 Q1021 NOSIG =
LIRP 251100Z 2512/2612 10005KT 9999 SCT030 TEMPO 2512/2518 4000 RA BR SCT010 BKN020 PROB30 TEMPO 2512/2515 10015G25KT 3000 SHRA BR FEW020CB BKN030 BECMG 2518/2520 3000 BR TEMPO 2520/2607 0500 FG BKN002
TAF
LIRP 251100Z 2512/2612 10005KT 9999 SCT030 TEMPO 2512/2518 4000 RA BR SCT010 BKN020 PROB30 TEMPO 2512/2515 10015G25KT 3000 SHRA BR FEW020CB BKN030 BECMG 2518/2520 3000 BR TEMPO 2520/2607 0500 FG BKN002 =
SR / SS: 06:42 / 16:22 UTC (Effemeridi LIQL 2020-01-25)